sensor_id;sensor_type;location;lat;lon;timestamp;P1;durP1;ratioP1;P2;durP2;ratioP2
485;SDS011;229;48.734;9.340;2023-06-26T00:00:30;11.00;;;8.43;;
485;SDS011;229;48.734;9.340;2023-06-26T00:02:57;13.77;;;8.83;;
485;SDS011;229;48.734;9.340;2023-06-26T00:05:25;14.20;;;9.17;;
485;SDS011;229;48.734;9.340;2023-06-26T00:07:53;13.70;;;8.30;;
485;SDS011;229;48.734;9.340;2023-06-26T00:10:20;21.13;;;8.63;;
485;SDS011;229;48.734;9.340;2023-06-26T00:12:47;12.63;;;8.50;;
485;SDS011;229;48.734;9.340;2023-06-26T00:15:14;11.20;;;8.13;;
485;SDS011;229;48.734;9.340;2023-06-26T00:17:43;11.87;;;8.27;;
485;SDS011;229;48.734;9.340;2023-06-26T00:20:10;14.20;;;8.43;;
485;SDS011;229;48.734;9.340;2023-06-26T00:22:39;13.70;;;8.75;;
485;SDS011;229;48.734;9.340;2023-06-26T00:25:07;12.37;;;8.67;;
485;SDS011;229;48.734;9.340;2023-06-26T00:27:34;14.85;;;8.35;;
485;SDS011;229;48.734;9.340;2023-06-26T00:30:02;12.77;;;8.52;;
485;SDS011;229;48.734;9.340;2023-06-26T00:32:30;14.05;;;8.52;;
485;SDS011;229;48.734;9.340;2023-06-26T00:34:58;12.20;;;8.47;;
485;SDS011;229;48.734;9.340;2023-06-26T00:37:25;12.10;;;8.13;;
485;SDS011;229;48.734;9.340;2023-06-26T00:39:52;12.10;;;8.63;;
485;SDS011;229;48.734;9.340;2023-06-26T00:42:20;13.97;;;8.43;;
485;SDS011;229;48.734;9.340;2023-06-26T00:44:47;13.18;;;8.13;;
485;SDS011;229;48.734;9.340;2023-06-26T00:47:14;13.80;;;8.83;;
485;SDS011;229;48.734;9.340;2023-06-26T00:49:42;12.43;;;7.82;;
485;SDS011;229;48.734;9.340;2023-06-26T00:52:11;12.02;;;7.90;;
485;SDS011;229;48.734;9.340;2023-06-26T00:54:38;12.95;;;8.32;;
485;SDS011;229;48.734;9.340;2023-06-26T00:57:05;11.70;;;7.70;;
485;SDS011;229;48.734;9.340;2023-06-26T00:59:33;10.55;;;7.65;;
485;SDS011;229;48.734;9.340;2023-06-26T01:02:00;12.63;;;7.25;;
485;SDS011;229;48.734;9.340;2023-06-26T01:04:28;11.45;;;8.02;;
485;SDS011;229;48.734;9.340;2023-06-26T01:06:57;12.70;;;7.78;;
485;SDS011;229;48.734;9.340;2023-06-26T01:09:26;12.00;;;7.17;;
485;SDS011;229;48.734;9.340;2023-06-26T01:11:53;15.52;;;9.20;;
485;SDS011;229;48.734;9.340;2023-06-26T01:14:21;14.00;;;8.70;;
485;SDS011;229;48.734;9.340;2023-06-26T01:16:48;11.77;;;7.28;;
485;SDS011;229;48.734;9.340;2023-06-26T01:19:19;12.13;;;8.38;;
485;SDS011;229;48.734;9.340;2023-06-26T01:21:50;14.40;;;8.00;;
485;SDS011;229;48.734;9.340;2023-06-26T01:24:18;10.98;;;7.30;;
485;SDS011;229;48.734;9.340;2023-06-26T01:26:53;13.70;;;8.15;;
485;SDS011;229;48.734;9.340;2023-06-26T01:29:20;15.30;;;9.02;;
485;SDS011;229;48.734;9.340;2023-06-26T01:31:49;11.70;;;7.95;;
485;SDS011;229;48.734;9.340;2023-06-26T01:34:17;15.45;;;8.35;;
485;SDS011;229;48.734;9.340;2023-06-26T01:36:44;12.32;;;8.50;;
485;SDS011;229;48.734;9.340;2023-06-26T01:39:14;11.88;;;7.60;;
485;SDS011;229;48.734;9.340;2023-06-26T01:41:41;10.63;;;7.05;;
485;SDS011;229;48.734;9.340;2023-06-26T01:44:14;13.77;;;7.97;;
485;SDS011;229;48.734;9.340;2023-06-26T01:46:46;12.35;;;8.10;;
485;SDS011;229;48.734;9.340;2023-06-26T01:49:15;14.25;;;8.00;;
485;SDS011;229;48.734;9.340;2023-06-26T01:51:45;11.88;;;8.07;;
485;SDS011;229;48.734;9.340;2023-06-26T01:54:18;17.67;;;9.02;;
485;SDS011;229;48.734;9.340;2023-06-26T01:56:47;12.48;;;8.02;;
485;SDS011;229;48.734;9.340;2023-06-26T01:59:17;13.63;;;8.43;;
485;SDS011;229;48.734;9.340;2023-06-26T02:01:45;10.75;;;8.27;;
485;SDS011;229;48.734;9.340;2023-06-26T02:04:13;10.88;;;7.35;;
485;SDS011;229;48.734;9.340;2023-06-26T02:06:40;11.45;;;7.95;;
485;SDS011;229;48.734;9.340;2023-06-26T02:09:07;13.93;;;8.60;;
485;SDS011;229;48.734;9.340;2023-06-26T02:11:34;15.35;;;7.97;;
485;SDS011;229;48.734;9.340;2023-06-26T02:14:02;11.10;;;7.82;;
485;SDS011;229;48.734;9.340;2023-06-26T02:16:30;13.07;;;8.10;;
485;SDS011;229;48.734;9.340;2023-06-26T02:18:58;14.80;;;8.25;;
485;SDS011;229;48.734;9.340;2023-06-26T02:21:25;12.43;;;7.82;;
485;SDS011;229;48.734;9.340;2023-06-26T02:23:52;11.10;;;7.70;;
485;SDS011;229;48.734;9.340;2023-06-26T02:26:19;13.93;;;8.25;;
485;SDS011;229;48.734;9.340;2023-06-26T02:28:46;13.90;;;9.77;;
485;SDS011;229;48.734;9.340;2023-06-26T02:31:14;11.75;;;7.97;;
485;SDS011;229;48.734;9.340;2023-06-26T02:33:42;14.10;;;8.30;;
485;SDS011;229;48.734;9.340;2023-06-26T02:36:10;11.73;;;7.28;;
485;SDS011;229;48.734;9.340;2023-06-26T02:38:37;12.60;;;8.40;;
485;SDS011;229;48.734;9.340;2023-06-26T02:41:05;10.95;;;7.35;;
485;SDS011;229;48.734;9.340;2023-06-26T02:43:32;11.70;;;7.47;;
485;SDS011;229;48.734;9.340;2023-06-26T02:45:59;14.48;;;7.80;;
485;SDS011;229;48.734;9.340;2023-06-26T02:48:26;13.60;;;8.18;;
485;SDS011;229;48.734;9.340;2023-06-26T02:50:55;11.75;;;7.82;;
485;SDS011;229;48.734;9.340;2023-06-26T02:53:22;11.75;;;7.32;;
485;SDS011;229;48.734;9.340;2023-06-26T02:55:49;11.25;;;6.82;;
485;SDS011;229;48.734;9.340;2023-06-26T02:58:16;12.00;;;7.70;;
485;SDS011;229;48.734;9.340;2023-06-26T03:00:44;15.60;;;8.18;;
485;SDS011;229;48.734;9.340;2023-06-26T03:03:12;11.25;;;7.38;;
485;SDS011;229;48.734;9.340;2023-06-26T03:05:39;16.67;;;8.25;;
485;SDS011;229;48.734;9.340;2023-06-26T03:08:07;10.32;;;7.22;;
485;SDS011;229;48.734;9.340;2023-06-26T03:10:35;14.32;;;8.73;;
485;SDS011;229;48.734;9.340;2023-06-26T03:13:02;14.35;;;8.23;;
485;SDS011;229;48.734;9.340;2023-06-26T03:15:29;14.02;;;8.00;;
485;SDS011;229;48.734;9.340;2023-06-26T03:17:56;12.88;;;7.40;;
485;SDS011;229;48.734;9.340;2023-06-26T03:20:23;14.75;;;9.57;;
485;SDS011;229;48.734;9.340;2023-06-26T03:22:50;13.93;;;8.98;;
485;SDS011;229;48.734;9.340;2023-06-26T03:25:19;14.35;;;8.80;;
485;SDS011;229;48.734;9.340;2023-06-26T03:27:46;12.23;;;8.82;;
485;SDS011;229;48.734;9.340;2023-06-26T03:30:14;13.93;;;8.95;;
485;SDS011;229;48.734;9.340;2023-06-26T03:32:41;13.02;;;8.95;;
485;SDS011;229;48.734;9.340;2023-06-26T03:35:08;11.93;;;8.40;;
485;SDS011;229;48.734;9.340;2023-06-26T03:37:35;13.98;;;8.93;;
485;SDS011;229;48.734;9.340;2023-06-26T03:40:02;16.88;;;10.05;;
485;SDS011;229;48.734;9.340;2023-06-26T03:42:32;19.85;;;11.07;;
485;SDS011;229;48.734;9.340;2023-06-26T03:44:59;16.75;;;10.45;;
485;SDS011;229;48.734;9.340;2023-06-26T03:47:26;18.73;;;10.93;;
485;SDS011;229;48.734;9.340;2023-06-26T03:49:53;15.70;;;9.60;;
485;SDS011;229;48.734;9.340;2023-06-26T03:52:20;12.75;;;9.40;;
485;SDS011;229;48.734;9.340;2023-06-26T03:54:47;14.07;;;9.48;;
485;SDS011;229;48.734;9.340;2023-06-26T03:57:15;10.68;;;8.60;;
485;SDS011;229;48.734;9.340;2023-06-26T03:59:43;17.15;;;10.20;;
485;SDS011;229;48.734;9.340;2023-06-26T04:02:10;13.77;;;10.10;;
485;SDS011;229;48.734;9.340;2023-06-26T04:04:38;13.32;;;10.57;;
485;SDS011;229;48.734;9.340;2023-06-26T04:07:05;17.38;;;10.73;;
485;SDS011;229;48.734;9.340;2023-06-26T04:09:33;14.10;;;10.10;;
485;SDS011;229;48.734;9.340;2023-06-26T04:12:00;14.30;;;9.10;;
485;SDS011;229;48.734;9.340;2023-06-26T04:14:27;15.32;;;9.13;;
485;SDS011;229;48.734;9.340;2023-06-26T04:16:56;16.35;;;9.60;;
485;SDS011;229;48.734;9.340;2023-06-26T04:19:25;14.02;;;9.93;;
485;SDS011;229;48.734;9.340;2023-06-26T04:21:52;14.60;;;10.18;;
485;SDS011;229;48.734;9.340;2023-06-26T04:24:20;17.98;;;10.00;;
485;SDS011;229;48.734;9.340;2023-06-26T04:26:47;18.10;;;10.82;;
485;SDS011;229;48.734;9.340;2023-06-26T04:29:14;16.55;;;9.68;;
485;SDS011;229;48.734;9.340;2023-06-26T04:31:41;19.13;;;11.05;;
485;SDS011;229;48.734;9.340;2023-06-26T04:34:12;13.90;;;9.60;;
485;SDS011;229;48.734;9.340;2023-06-26T04:36:40;15.70;;;9.90;;
485;SDS011;229;48.734;9.340;2023-06-26T04:39:11;13.07;;;9.43;;
485;SDS011;229;48.734;9.340;2023-06-26T04:41:41;14.85;;;10.23;;
485;SDS011;229;48.734;9.340;2023-06-26T04:44:08;13.07;;;10.38;;
485;SDS011;229;48.734;9.340;2023-06-26T04:46:36;14.30;;;10.52;;
485;SDS011;229;48.734;9.340;2023-06-26T04:49:06;14.23;;;9.68;;
485;SDS011;229;48.734;9.340;2023-06-26T04:51:34;14.48;;;10.05;;
485;SDS011;229;48.734;9.340;2023-06-26T04:54:05;15.90;;;10.57;;
485;SDS011;229;48.734;9.340;2023-06-26T04:56:32;16.08;;;10.30;;
485;SDS011;229;48.734;9.340;2023-06-26T04:58:59;16.05;;;10.60;;
485;SDS011;229;48.734;9.340;2023-06-26T05:01:27;17.85;;;10.80;;
485;SDS011;229;48.734;9.340;2023-06-26T05:03:54;14.25;;;10.27;;
485;SDS011;229;48.734;9.340;2023-06-26T05:06:22;15.40;;;9.02;;
485;SDS011;229;48.734;9.340;2023-06-26T05:08:50;17.63;;;9.85;;
485;SDS011;229;48.734;9.340;2023-06-26T05:11:18;16.02;;;10.63;;
485;SDS011;229;48.734;9.340;2023-06-26T05:13:45;18.20;;;10.07;;
485;SDS011;229;48.734;9.340;2023-06-26T05:16:12;18.85;;;12.25;;
485;SDS011;229;48.734;9.340;2023-06-26T05:18:39;17.02;;;11.75;;
485;SDS011;229;48.734;9.340;2023-06-26T05:21:06;18.77;;;12.60;;
485;SDS011;229;48.734;9.340;2023-06-26T05:23:34;17.35;;;13.05;;
485;SDS011;229;48.734;9.340;2023-06-26T05:26:03;18.02;;;13.40;;
485;SDS011;229;48.734;9.340;2023-06-26T05:28:30;18.95;;;13.18;;
485;SDS011;229;48.734;9.340;2023-06-26T05:30:58;18.38;;;12.57;;
485;SDS011;229;48.734;9.340;2023-06-26T05:33:25;17.35;;;12.20;;
485;SDS011;229;48.734;9.340;2023-06-26T05:35:53;20.10;;;14.18;;
485;SDS011;229;48.734;9.340;2023-06-26T05:38:21;23.30;;;11.70;;
485;SDS011;229;48.734;9.340;2023-06-26T05:40:48;17.45;;;12.05;;
485;SDS011;229;48.734;9.340;2023-06-26T05:43:17;14.68;;;11.35;;
485;SDS011;229;48.734;9.340;2023-06-26T05:45:46;17.63;;;10.93;;
485;SDS011;229;48.734;9.340;2023-06-26T05:48:13;12.60;;;9.57;;
485;SDS011;229;48.734;9.340;2023-06-26T05:50:41;12.97;;;9.47;;
485;SDS011;229;48.734;9.340;2023-06-26T05:53:09;15.10;;;10.10;;
485;SDS011;229;48.734;9.340;2023-06-26T05:55:36;14.87;;;11.30;;
485;SDS011;229;48.734;9.340;2023-06-26T05:58:04;13.98;;;10.38;;
485;SDS011;229;48.734;9.340;2023-06-26T06:00:33;14.03;;;10.10;;
485;SDS011;229;48.734;9.340;2023-06-26T06:03:01;13.27;;;10.40;;
485;SDS011;229;48.734;9.340;2023-06-26T06:05:28;16.30;;;10.10;;
485;SDS011;229;48.734;9.340;2023-06-26T06:07:55;14.23;;;9.90;;
485;SDS011;229;48.734;9.340;2023-06-26T06:10:22;30.07;;;19.40;;
485;SDS011;229;48.734;9.340;2023-06-26T06:12:49;16.17;;;11.57;;
485;SDS011;229;48.734;9.340;2023-06-26T06:15:17;14.10;;;10.60;;
485;SDS011;229;48.734;9.340;2023-06-26T06:17:45;18.33;;;10.27;;
485;SDS011;229;48.734;9.340;2023-06-26T06:20:13;13.73;;;10.50;;
485;SDS011;229;48.734;9.340;2023-06-26T06:22:40;14.03;;;10.23;;
485;SDS011;229;48.734;9.340;2023-06-26T06:25:07;11.60;;;9.60;;
485;SDS011;229;48.734;9.340;2023-06-26T06:27:34;13.40;;;10.13;;
485;SDS011;229;48.734;9.340;2023-06-26T06:30:02;12.57;;;10.13;;
485;SDS011;229;48.734;9.340;2023-06-26T06:32:29;15.57;;;10.90;;
485;SDS011;229;48.734;9.340;2023-06-26T06:34:58;14.00;;;10.60;;
485;SDS011;229;48.734;9.340;2023-06-26T06:37:29;12.40;;;9.90;;
485;SDS011;229;48.734;9.340;2023-06-26T06:39:57;15.23;;;9.83;;
485;SDS011;229;48.734;9.340;2023-06-26T06:42:24;15.50;;;9.90;;
485;SDS011;229;48.734;9.340;2023-06-26T06:44:51;11.17;;;9.80;;
485;SDS011;229;48.734;9.340;2023-06-26T06:47:18;13.03;;;10.33;;
485;SDS011;229;48.734;9.340;2023-06-26T06:49:46;12.17;;;10.17;;
485;SDS011;229;48.734;9.340;2023-06-26T06:52:14;11.70;;;9.40;;
485;SDS011;229;48.734;9.340;2023-06-26T06:54:51;11.83;;;9.43;;
485;SDS011;229;48.734;9.340;2023-06-26T06:57:19;15.50;;;9.80;;
485;SDS011;229;48.734;9.340;2023-06-26T06:59:46;12.10;;;10.80;;
485;SDS011;229;48.734;9.340;2023-06-26T07:02:14;13.30;;;10.43;;
485;SDS011;229;48.734;9.340;2023-06-26T07:04:41;14.20;;;10.00;;
485;SDS011;229;48.734;9.340;2023-06-26T07:07:08;11.97;;;10.10;;
485;SDS011;229;48.734;9.340;2023-06-26T07:09:37;16.37;;;10.33;;
485;SDS011;229;48.734;9.340;2023-06-26T07:12:04;13.87;;;9.83;;
485;SDS011;229;48.734;9.340;2023-06-26T07:14:31;11.73;;;9.37;;
485;SDS011;229;48.734;9.340;2023-06-26T07:16:59;16.97;;;10.47;;
485;SDS011;229;48.734;9.340;2023-06-26T07:19:26;11.73;;;9.93;;
485;SDS011;229;48.734;9.340;2023-06-26T07:21:53;12.93;;;10.30;;
485;SDS011;229;48.734;9.340;2023-06-26T07:24:20;13.00;;;10.10;;
485;SDS011;229;48.734;9.340;2023-06-26T07:26:49;12.80;;;11.00;;
485;SDS011;229;48.734;9.340;2023-06-26T07:29:16;12.70;;;9.20;;
485;SDS011;229;48.734;9.340;2023-06-26T07:31:43;11.67;;;10.80;;
485;SDS011;229;48.734;9.340;2023-06-26T07:34:10;12.30;;;9.80;;
485;SDS011;229;48.734;9.340;2023-06-26T07:36:37;11.50;;;10.87;;
485;SDS011;229;48.734;9.340;2023-06-26T07:39:04;12.37;;;10.97;;
485;SDS011;229;48.734;9.340;2023-06-26T07:41:32;12.57;;;10.43;;
485;SDS011;229;48.734;9.340;2023-06-26T07:44:00;12.47;;;9.70;;
485;SDS011;229;48.734;9.340;2023-06-26T07:46:27;11.07;;;9.60;;
485;SDS011;229;48.734;9.340;2023-06-26T07:48:54;14.17;;;9.33;;
485;SDS011;229;48.734;9.340;2023-06-26T07:51:22;13.30;;;8.83;;
485;SDS011;229;48.734;9.340;2023-06-26T07:53:49;11.47;;;9.03;;
485;SDS011;229;48.734;9.340;2023-06-26T07:56:16;12.40;;;9.53;;
485;SDS011;229;48.734;9.340;2023-06-26T07:58:43;12.73;;;9.07;;
485;SDS011;229;48.734;9.340;2023-06-26T08:01:12;13.70;;;9.50;;
485;SDS011;229;48.734;9.340;2023-06-26T08:03:39;9.60;;;9.03;;
485;SDS011;229;48.734;9.340;2023-06-26T08:06:06;13.00;;;9.57;;
485;SDS011;229;48.734;9.340;2023-06-26T08:08:33;9.83;;;9.37;;
485;SDS011;229;48.734;9.340;2023-06-26T08:11:00;13.40;;;9.83;;
485;SDS011;229;48.734;9.340;2023-06-26T08:13:28;10.00;;;9.47;;
485;SDS011;229;48.734;9.340;2023-06-26T08:15:55;13.40;;;9.90;;
485;SDS011;229;48.734;9.340;2023-06-26T08:18:23;9.50;;;9.00;;
485;SDS011;229;48.734;9.340;2023-06-26T08:20:50;11.73;;;10.13;;
485;SDS011;229;48.734;9.340;2023-06-26T08:23:18;9.87;;;9.30;;
485;SDS011;229;48.734;9.340;2023-06-26T08:25:45;11.03;;;8.90;;
485;SDS011;229;48.734;9.340;2023-06-26T08:28:13;14.50;;;9.80;;
485;SDS011;229;48.734;9.340;2023-06-26T08:30:40;14.03;;;9.63;;
485;SDS011;229;48.734;9.340;2023-06-26T08:33:08;9.30;;;8.80;;
485;SDS011;229;48.734;9.340;2023-06-26T08:35:38;9.73;;;9.23;;
485;SDS011;229;48.734;9.340;2023-06-26T08:38:05;12.43;;;8.90;;
485;SDS011;229;48.734;9.340;2023-06-26T08:40:34;9.40;;;8.90;;
485;SDS011;229;48.734;9.340;2023-06-26T08:43:01;10.90;;;9.20;;
485;SDS011;229;48.734;9.340;2023-06-26T08:45:29;13.90;;;9.00;;
485;SDS011;229;48.734;9.340;2023-06-26T08:47:57;10.37;;;9.43;;
485;SDS011;229;48.734;9.340;2023-06-26T08:50:27;10.00;;;9.50;;
485;SDS011;229;48.734;9.340;2023-06-26T08:52:58;9.83;;;9.17;;
485;SDS011;229;48.734;9.340;2023-06-26T08:55:29;9.10;;;8.60;;
485;SDS011;229;48.734;9.340;2023-06-26T08:57:58;10.20;;;9.70;;
485;SDS011;229;48.734;9.340;2023-06-26T09:00:26;12.73;;;8.37;;
485;SDS011;229;48.734;9.340;2023-06-26T09:02:54;9.10;;;8.60;;
485;SDS011;229;48.734;9.340;2023-06-26T09:05:22;9.07;;;8.57;;
485;SDS011;229;48.734;9.340;2023-06-26T09:07:50;9.87;;;8.33;;
485;SDS011;229;48.734;9.340;2023-06-26T09:10:21;9.43;;;8.20;;
485;SDS011;229;48.734;9.340;2023-06-26T09:12:49;8.47;;;7.83;;
485;SDS011;229;48.734;9.340;2023-06-26T09:15:19;9.77;;;7.90;;
485;SDS011;229;48.734;9.340;2023-06-26T09:17:47;11.17;;;8.30;;
485;SDS011;229;48.734;9.340;2023-06-26T09:20:15;8.90;;;8.40;;
485;SDS011;229;48.734;9.340;2023-06-26T09:22:42;9.13;;;7.97;;
485;SDS011;229;48.734;9.340;2023-06-26T09:25:10;9.60;;;8.20;;
485;SDS011;229;48.734;9.340;2023-06-26T09:27:39;10.30;;;7.50;;
485;SDS011;229;48.734;9.340;2023-06-26T09:30:07;16.97;;;8.40;;
485;SDS011;229;48.734;9.340;2023-06-26T09:32:34;8.70;;;8.20;;
485;SDS011;229;48.734;9.340;2023-06-26T09:35:02;7.70;;;7.30;;
485;SDS011;229;48.734;9.340;2023-06-26T09:37:30;8.80;;;7.93;;
485;SDS011;229;48.734;9.340;2023-06-26T09:39:57;8.03;;;7.50;;
485;SDS011;229;48.734;9.340;2023-06-26T09:42:25;8.30;;;7.90;;
485;SDS011;229;48.734;9.340;2023-06-26T09:44:53;9.80;;;7.43;;
485;SDS011;229;48.734;9.340;2023-06-26T09:47:20;10.30;;;8.57;;
485;SDS011;229;48.734;9.340;2023-06-26T09:49:48;8.93;;;7.80;;
485;SDS011;229;48.734;9.340;2023-06-26T09:52:15;8.07;;;7.67;;
485;SDS011;229;48.734;9.340;2023-06-26T09:54:43;8.10;;;7.70;;
485;SDS011;229;48.734;9.340;2023-06-26T09:57:11;9.07;;;8.43;;
485;SDS011;229;48.734;9.340;2023-06-26T09:59:39;10.13;;;7.77;;
485;SDS011;229;48.734;9.340;2023-06-26T10:02:07;8.87;;;8.03;;
485;SDS011;229;48.734;9.340;2023-06-26T10:04:36;9.93;;;7.77;;
485;SDS011;229;48.734;9.340;2023-06-26T10:07:04;11.13;;;7.93;;
485;SDS011;229;48.734;9.340;2023-06-26T10:09:32;9.63;;;8.30;;
485;SDS011;229;48.734;9.340;2023-06-26T10:12:00;9.00;;;8.50;;
485;SDS011;229;48.734;9.340;2023-06-26T10:14:30;10.90;;;8.73;;
485;SDS011;229;48.734;9.340;2023-06-26T10:16:59;7.90;;;7.50;;
485;SDS011;229;48.734;9.340;2023-06-26T10:19:28;8.60;;;7.60;;
485;SDS011;229;48.734;9.340;2023-06-26T10:21:56;8.77;;;7.27;;
485;SDS011;229;48.734;9.340;2023-06-26T10:24:25;10.37;;;7.93;;
485;SDS011;229;48.734;9.340;2023-06-26T10:26:55;8.47;;;8.00;;
485;SDS011;229;48.734;9.340;2023-06-26T10:29:24;8.27;;;7.87;;
485;SDS011;229;48.734;9.340;2023-06-26T10:31:52;10.70;;;7.73;;
485;SDS011;229;48.734;9.340;2023-06-26T10:34:21;9.37;;;8.20;;
485;SDS011;229;48.734;9.340;2023-06-26T10:36:55;11.33;;;7.70;;
485;SDS011;229;48.734;9.340;2023-06-26T10:39:25;8.77;;;7.83;;
485;SDS011;229;48.734;9.340;2023-06-26T10:41:54;11.83;;;8.67;;
485;SDS011;229;48.734;9.340;2023-06-26T10:44:21;9.13;;;7.90;;
485;SDS011;229;48.734;9.340;2023-06-26T10:46:49;10.10;;;9.17;;
485;SDS011;229;48.734;9.340;2023-06-26T10:49:17;10.73;;;8.90;;
485;SDS011;229;48.734;9.340;2023-06-26T10:51:49;15.47;;;9.17;;
485;SDS011;229;48.734;9.340;2023-06-26T10:54:17;9.50;;;8.10;;
485;SDS011;229;48.734;9.340;2023-06-26T10:56:45;10.23;;;8.37;;
485;SDS011;229;48.734;9.340;2023-06-26T10:59:16;10.23;;;8.50;;
485;SDS011;229;48.734;9.340;2023-06-26T11:01:44;9.13;;;8.63;;
485;SDS011;229;48.734;9.340;2023-06-26T11:04:12;12.53;;;9.00;;
485;SDS011;229;48.734;9.340;2023-06-26T11:06:41;12.47;;;9.40;;
485;SDS011;229;48.734;9.340;2023-06-26T11:09:13;15.50;;;9.67;;
485;SDS011;229;48.734;9.340;2023-06-26T11:11:59;9.87;;;9.37;;
485;SDS011;229;48.734;9.340;2023-06-26T11:14:32;18.27;;;9.73;;
485;SDS011;229;48.734;9.340;2023-06-26T11:17:03;9.57;;;9.07;;
485;SDS011;229;48.734;9.340;2023-06-26T11:19:30;13.67;;;9.37;;
485;SDS011;229;48.734;9.340;2023-06-26T11:21:58;10.73;;;9.17;;
485;SDS011;229;48.734;9.340;2023-06-26T11:24:27;16.43;;;9.63;;
485;SDS011;229;48.734;9.340;2023-06-26T11:26:55;10.00;;;9.17;;
485;SDS011;229;48.734;9.340;2023-06-26T11:29:26;9.93;;;9.40;;
485;SDS011;229;48.734;9.340;2023-06-26T11:31:58;12.23;;;9.90;;
485;SDS011;229;48.734;9.340;2023-06-26T11:34:28;11.67;;;9.43;;
485;SDS011;229;48.734;9.340;2023-06-26T11:36:56;10.37;;;9.40;;
485;SDS011;229;48.734;9.340;2023-06-26T11:39:27;10.93;;;9.50;;
485;SDS011;229;48.734;9.340;2023-06-26T11:41:55;14.43;;;9.77;;
485;SDS011;229;48.734;9.340;2023-06-26T11:44:22;11.27;;;9.73;;
485;SDS011;229;48.734;9.340;2023-06-26T11:46:53;12.00;;;10.30;;
485;SDS011;229;48.734;9.340;2023-06-26T11:49:20;10.40;;;9.40;;
485;SDS011;229;48.734;9.340;2023-06-26T11:51:50;11.00;;;10.40;;
485;SDS011;229;48.734;9.340;2023-06-26T11:54:23;11.77;;;11.17;;
485;SDS011;229;48.734;9.340;2023-06-26T11:56:55;12.63;;;9.93;;
485;SDS011;229;48.734;9.340;2023-06-26T11:59:23;12.57;;;9.60;;
485;SDS011;229;48.734;9.340;2023-06-26T12:01:52;9.67;;;9.17;;
485;SDS011;229;48.734;9.340;2023-06-26T12:04:19;10.50;;;9.67;;
485;SDS011;229;48.734;9.340;2023-06-26T12:06:47;11.60;;;9.87;;
485;SDS011;229;48.734;9.340;2023-06-26T12:09:14;10.90;;;9.87;;
485;SDS011;229;48.734;9.340;2023-06-26T12:11:42;14.83;;;11.47;;
485;SDS011;229;48.734;9.340;2023-06-26T12:14:11;11.27;;;9.60;;
485;SDS011;229;48.734;9.340;2023-06-26T12:16:39;18.20;;;10.13;;
485;SDS011;229;48.734;9.340;2023-06-26T12:19:06;12.07;;;9.07;;
485;SDS011;229;48.734;9.340;2023-06-26T12:21:44;10.53;;;9.77;;
485;SDS011;229;48.734;9.340;2023-06-26T12:24:13;12.57;;;9.23;;
485;SDS011;229;48.734;9.340;2023-06-26T12:26:41;16.03;;;10.40;;
485;SDS011;229;48.734;9.340;2023-06-26T12:29:10;14.50;;;9.90;;
485;SDS011;229;48.734;9.340;2023-06-26T12:31:40;15.40;;;10.23;;
485;SDS011;229;48.734;9.340;2023-06-26T12:34:08;10.53;;;9.43;;
485;SDS011;229;48.734;9.340;2023-06-26T12:36:40;13.30;;;9.10;;
485;SDS011;229;48.734;9.340;2023-06-26T12:39:09;10.13;;;9.30;;
485;SDS011;229;48.734;9.340;2023-06-26T12:41:43;14.77;;;8.20;;
485;SDS011;229;48.734;9.340;2023-06-26T12:44:16;10.53;;;9.10;;
485;SDS011;229;48.734;9.340;2023-06-26T12:46:44;11.60;;;10.60;;
485;SDS011;229;48.734;9.340;2023-06-26T12:49:12;10.67;;;8.93;;
485;SDS011;229;48.734;9.340;2023-06-26T12:51:39;14.93;;;10.20;;
485;SDS011;229;48.734;9.340;2023-06-26T12:54:08;10.57;;;9.90;;
485;SDS011;229;48.734;9.340;2023-06-26T12:56:35;10.93;;;10.30;;
485;SDS011;229;48.734;9.340;2023-06-26T12:59:02;12.50;;;10.90;;
485;SDS011;229;48.734;9.340;2023-06-26T13:01:29;10.50;;;9.57;;
485;SDS011;229;48.734;9.340;2023-06-26T13:03:59;10.07;;;9.57;;
485;SDS011;229;48.734;9.340;2023-06-26T13:06:26;11.23;;;10.67;;
485;SDS011;229;48.734;9.340;2023-06-26T13:08:53;12.90;;;11.70;;
485;SDS011;229;48.734;9.340;2023-06-26T13:11:20;11.77;;;10.57;;
485;SDS011;229;48.734;9.340;2023-06-26T13:13:48;11.93;;;11.17;;
485;SDS011;229;48.734;9.340;2023-06-26T13:16:15;10.43;;;9.90;;
485;SDS011;229;48.734;9.340;2023-06-26T13:18:44;13.40;;;9.97;;
485;SDS011;229;48.734;9.340;2023-06-26T13:21:13;14.47;;;9.13;;
485;SDS011;229;48.734;9.340;2023-06-26T13:23:41;10.40;;;9.47;;
485;SDS011;229;48.734;9.340;2023-06-26T13:26:08;10.67;;;9.80;;
485;SDS011;229;48.734;9.340;2023-06-26T13:28:36;13.40;;;10.53;;
485;SDS011;229;48.734;9.340;2023-06-26T13:31:03;19.40;;;10.43;;
485;SDS011;229;48.734;9.340;2023-06-26T13:33:30;12.43;;;10.60;;
485;SDS011;229;48.734;9.340;2023-06-26T13:35:58;12.10;;;10.23;;
485;SDS011;229;48.734;9.340;2023-06-26T13:38:28;10.27;;;9.40;;
485;SDS011;229;48.734;9.340;2023-06-26T13:40:55;11.43;;;9.20;;
485;SDS011;229;48.734;9.340;2023-06-26T13:43:23;10.33;;;8.77;;
485;SDS011;229;48.734;9.340;2023-06-26T13:45:50;14.60;;;9.17;;
485;SDS011;229;48.734;9.340;2023-06-26T13:48:17;17.40;;;9.80;;
485;SDS011;229;48.734;9.340;2023-06-26T13:50:44;13.87;;;10.03;;
485;SDS011;229;48.734;9.340;2023-06-26T13:53:12;12.00;;;9.40;;
485;SDS011;229;48.734;9.340;2023-06-26T13:55:41;12.03;;;10.00;;
485;SDS011;229;48.734;9.340;2023-06-26T13:58:08;9.80;;;9.00;;
485;SDS011;229;48.734;9.340;2023-06-26T14:00:36;11.70;;;9.07;;
485;SDS011;229;48.734;9.340;2023-06-26T14:03:04;12.47;;;8.87;;
485;SDS011;229;48.734;9.340;2023-06-26T14:05:31;8.90;;;8.40;;
485;SDS011;229;48.734;9.340;2023-06-26T14:07:58;11.73;;;8.77;;
485;SDS011;229;48.734;9.340;2023-06-26T14:10:26;11.10;;;8.70;;
485;SDS011;229;48.734;9.340;2023-06-26T14:12:54;9.67;;;9.17;;
485;SDS011;229;48.734;9.340;2023-06-26T14:15:21;11.03;;;9.20;;
485;SDS011;229;48.734;9.340;2023-06-26T14:17:48;11.13;;;8.73;;
485;SDS011;229;48.734;9.340;2023-06-26T14:20:16;11.47;;;8.67;;
485;SDS011;229;48.734;9.340;2023-06-26T14:22:46;9.53;;;8.57;;
485;SDS011;229;48.734;9.340;2023-06-26T14:25:13;10.37;;;8.60;;
485;SDS011;229;48.734;9.340;2023-06-26T14:27:40;11.53;;;8.53;;
485;SDS011;229;48.734;9.340;2023-06-26T14:30:10;9.47;;;9.00;;
485;SDS011;229;48.734;9.340;2023-06-26T14:32:37;11.23;;;9.50;;
485;SDS011;229;48.734;9.340;2023-06-26T14:35:04;10.33;;;9.20;;
485;SDS011;229;48.734;9.340;2023-06-26T14:37:31;18.53;;;8.00;;
485;SDS011;229;48.734;9.340;2023-06-26T14:39:59;12.63;;;7.77;;
485;SDS011;229;48.734;9.340;2023-06-26T14:42:26;8.57;;;6.97;;
485;SDS011;229;48.734;9.340;2023-06-26T14:44:53;9.80;;;7.43;;
485;SDS011;229;48.734;9.340;2023-06-26T14:47:21;9.03;;;7.87;;
485;SDS011;229;48.734;9.340;2023-06-26T14:49:48;9.87;;;7.57;;
485;SDS011;229;48.734;9.340;2023-06-26T14:52:16;8.70;;;7.10;;
485;SDS011;229;48.734;9.340;2023-06-26T14:54:43;11.30;;;8.20;;
485;SDS011;229;48.734;9.340;2023-06-26T14:57:10;10.40;;;6.50;;
485;SDS011;229;48.734;9.340;2023-06-26T14:59:37;8.87;;;7.60;;
485;SDS011;229;48.734;9.340;2023-06-26T15:02:04;19.53;;;6.80;;
485;SDS011;229;48.734;9.340;2023-06-26T15:04:33;11.20;;;6.50;;
485;SDS011;229;48.734;9.340;2023-06-26T15:07:00;7.47;;;6.40;;
485;SDS011;229;48.734;9.340;2023-06-26T15:09:27;6.77;;;6.37;;
485;SDS011;229;48.734;9.340;2023-06-26T15:11:57;11.37;;;6.13;;
485;SDS011;229;48.734;9.340;2023-06-26T15:14:24;7.40;;;6.00;;
485;SDS011;229;48.734;9.340;2023-06-26T15:16:51;6.67;;;5.40;;
485;SDS011;229;48.734;9.340;2023-06-26T15:19:18;5.77;;;5.50;;
485;SDS011;229;48.734;9.340;2023-06-26T15:21:47;8.40;;;6.00;;
485;SDS011;229;48.734;9.340;2023-06-26T15:24:14;6.93;;;6.23;;
485;SDS011;229;48.734;9.340;2023-06-26T15:26:41;7.40;;;7.00;;
485;SDS011;229;48.734;9.340;2023-06-26T15:29:08;7.43;;;7.00;;
485;SDS011;229;48.734;9.340;2023-06-26T15:31:35;8.17;;;7.00;;
485;SDS011;229;48.734;9.340;2023-06-26T15:34:03;7.53;;;6.30;;